Terminal Aerodrome Forecast
Issued by NWS

Home | Current Version | Previous Version | Text Only | Print | Product List | Glossary Off
Versions: 1 2 3 4 5 6 7 8 9 10 11 12 13 14 15 16 17 18 19 20

907
FTUS43 KMPX 080349 AAA
TAFRNH
TAF AMD
KRNH 080349Z 0804/0824 23008KT P6SM OVC080
     FM080700 25005KT P6SM SCT015 OVC020
     FM081200 29005KT P6SM OVC015
     FM082200 26008KT 1SM -SN OVC015=

USA.gov is the U.S. government's official web portal to all federal, state and local government web resources and services.